Ely Municipal Airport
KELO : now visible

Airfield :











YOU CAN JOIN US ON...

 
LOGIN :

Register | Disclaimer

   EN    FR    IT 

 









Legend :    VFR   Marginal VFR   IFR   Intensive IFR   Very Intensive IFR
Visi :
Ceiling :
>= 8 km
>= 3000ft
5 to 8 km
1000 to 3000 ft
1500m to 5 km
500 to 1000 ft
800 to 1500m
200 to 500 ft
< 800m
< 200 ft
Symbols :   Thunderstorms  Fog  Heavy snow  Heavy precipitations  Wind > 20 kt






- Airport Elevation : 1456 ft


KELO - Ely Municipal

CURRENT METAR :
  • 030935Z AUTO 00000KT 10SM BKN060 07/07 A3019 RMK AO2

EXPIRED METARs :
  • 030915Z AUTO 00000KT 10SM SCT060 07/06 A3019 RMK AO2
  • 030855Z AUTO 00000KT 10SM CLR 07/07 A3019 RMK AO2
  • 030835Z AUTO 00000KT 10SM CLR 07/07 A3019 RMK AO2
  • 030815Z AUTO 00000KT 10SM CLR 08/08 A3018 RMK AO2
  • 030755Z AUTO 00000KT 10SM CLR 08/08 A3018 RMK AO2
  • 030735Z AUTO 00000KT 10SM CLR 08/07 A3018 RMK AO2
  • 030715Z AUTO 00000KT 10SM CLR 10/07 A3018 RMK AO2
  • 030655Z AUTO 00000KT 10SM CLR 12/08 A3018 RMK AO2
  • 030635Z AUTO 00000KT 10SM CLR 13/09 A3018 RMK AO2

TAF N/A
KZMP FIR / North America



MET'MAP, your aeronautical weather chart ! - Copyright ORBIFLY December 2007 - Disclaimer

ORBIFLY MET'MAP TEAM :

Programming & Development : Alexandra Zaïnal
Concept & original design : Baudouin d'Aumeries
Assistance for programming : Marc-Olivier Méhu
Technical & hardware support : Manuel Goepfert

Contact : metmap@orbifly.com




SOURCES & CREDITS :

   NOAA       Earth
Advisory